sensor_id;sensor_type;location;lat;lon;timestamp;P1;durP1;ratioP1;P2;durP2;ratioP2
70981;SDS011;58640;51.320;9.456;2022-12-07T00:01:30;12.80;;;7.70;;
70981;SDS011;58640;51.320;9.456;2022-12-07T00:03:58;10.60;;;7.07;;
70981;SDS011;58640;51.320;9.456;2022-12-07T00:06:34;11.77;;;6.73;;
70981;SDS011;58640;51.320;9.456;2022-12-07T00:09:05;13.27;;;7.28;;
70981;SDS011;58640;51.320;9.456;2022-12-07T00:11:31;11.70;;;7.35;;
70981;SDS011;58640;51.320;9.456;2022-12-07T00:13:57;12.73;;;7.60;;
70981;SDS011;58640;51.320;9.456;2022-12-07T00:16:25;13.20;;;8.32;;
70981;SDS011;58640;51.320;9.456;2022-12-07T00:18:53;13.17;;;8.37;;
70981;SDS011;58640;51.320;9.456;2022-12-07T00:21:19;13.10;;;8.10;;
70981;SDS011;58640;51.320;9.456;2022-12-07T00:23:46;14.23;;;7.93;;
70981;SDS011;58640;51.320;9.456;2022-12-07T00:28:45;11.80;;;7.70;;
70981;SDS011;58640;51.320;9.456;2022-12-07T00:31:15;13.55;;;7.97;;
70981;SDS011;58640;51.320;9.456;2022-12-07T00:33:42;12.05;;;7.85;;
70981;SDS011;58640;51.320;9.456;2022-12-07T00:36:09;15.48;;;9.10;;
70981;SDS011;58640;51.320;9.456;2022-12-07T00:38:37;14.98;;;8.55;;
70981;SDS011;58640;51.320;9.456;2022-12-07T00:41:05;13.70;;;8.52;;
70981;SDS011;58640;51.320;9.456;2022-12-07T00:43:32;11.37;;;8.10;;
70981;SDS011;58640;51.320;9.456;2022-12-07T00:45:57;13.87;;;9.13;;
70981;SDS011;58640;51.320;9.456;2022-12-07T00:48:23;13.80;;;8.77;;
70981;SDS011;58640;51.320;9.456;2022-12-07T00:50:48;13.73;;;8.85;;
70981;SDS011;58640;51.320;9.456;2022-12-07T00:53:15;16.07;;;9.87;;
70981;SDS011;58640;51.320;9.456;2022-12-07T00:55:41;17.00;;;8.97;;
70981;SDS011;58640;51.320;9.456;2022-12-07T00:58:06;20.77;;;9.53;;
70981;SDS011;58640;51.320;9.456;2022-12-07T01:00:32;15.70;;;9.17;;
70981;SDS011;58640;51.320;9.456;2022-12-07T01:02:58;16.57;;;9.93;;
70981;SDS011;58640;51.320;9.456;2022-12-07T01:05:23;16.03;;;9.30;;
70981;SDS011;58640;51.320;9.456;2022-12-07T01:07:49;16.08;;;9.90;;
70981;SDS011;58640;51.320;9.456;2022-12-07T01:10:14;14.97;;;9.90;;
70981;SDS011;58640;51.320;9.456;2022-12-07T01:12:40;15.25;;;9.30;;
70981;SDS011;58640;51.320;9.456;2022-12-07T01:15:06;16.52;;;9.98;;
70981;SDS011;58640;51.320;9.456;2022-12-07T01:17:32;15.95;;;9.35;;
70981;SDS011;58640;51.320;9.456;2022-12-07T01:19:57;19.60;;;11.00;;
70981;SDS011;58640;51.320;9.456;2022-12-07T01:22:23;19.13;;;9.17;;
70981;SDS011;58640;51.320;9.456;2022-12-07T01:24:48;17.97;;;10.43;;
70981;SDS011;58640;51.320;9.456;2022-12-07T01:27:13;16.98;;;10.68;;
70981;SDS011;58640;51.320;9.456;2022-12-07T01:29:39;17.43;;;10.23;;
70981;SDS011;58640;51.320;9.456;2022-12-07T01:32:04;17.83;;;10.55;;
70981;SDS011;58640;51.320;9.456;2022-12-07T01:34:30;16.97;;;10.93;;
70981;SDS011;58640;51.320;9.456;2022-12-07T01:36:55;20.13;;;11.60;;
70981;SDS011;58640;51.320;9.456;2022-12-07T01:39:21;17.80;;;10.48;;
70981;SDS011;58640;51.320;9.456;2022-12-07T01:41:47;16.15;;;9.40;;
70981;SDS011;58640;51.320;9.456;2022-12-07T01:44:28;16.17;;;10.10;;
70981;SDS011;58640;51.320;9.456;2022-12-07T01:46:57;16.45;;;9.88;;
70981;SDS011;58640;51.320;9.456;2022-12-07T01:49:26;19.13;;;11.57;;
70981;SDS011;58640;51.320;9.456;2022-12-07T01:52:18;17.53;;;10.27;;
70981;SDS011;58640;51.320;9.456;2022-12-07T01:54:44;17.42;;;10.48;;
70981;SDS011;58640;51.320;9.456;2022-12-07T01:57:12;18.77;;;11.02;;
70981;SDS011;58640;51.320;9.456;2022-12-07T01:59:39;18.15;;;11.02;;
70981;SDS011;58640;51.320;9.456;2022-12-07T02:02:07;21.42;;;11.65;;
70981;SDS011;58640;51.320;9.456;2022-12-07T02:05:04;22.10;;;11.52;;
70981;SDS011;58640;51.320;9.456;2022-12-07T02:07:31;18.67;;;10.83;;
70981;SDS011;58640;51.320;9.456;2022-12-07T02:10:14;20.07;;;11.40;;
70981;SDS011;58640;51.320;9.456;2022-12-07T02:12:44;19.92;;;10.70;;
70981;SDS011;58640;51.320;9.456;2022-12-07T02:15:14;26.80;;;12.63;;
70981;SDS011;58640;51.320;9.456;2022-12-07T02:28:49;19.17;;;10.50;;
70981;SDS011;58640;51.320;9.456;2022-12-07T02:31:33;19.35;;;10.68;;
70981;SDS011;58640;51.320;9.456;2022-12-07T02:34:06;17.98;;;10.82;;
70981;SDS011;58640;51.320;9.456;2022-12-07T02:36:37;19.95;;;11.70;;
70981;SDS011;58640;51.320;9.456;2022-12-07T02:39:09;20.98;;;10.70;;
70981;SDS011;58640;51.320;9.456;2022-12-07T02:41:43;23.10;;;11.65;;
70981;SDS011;58640;51.320;9.456;2022-12-07T02:44:12;20.20;;;10.93;;
70981;SDS011;58640;51.320;9.456;2022-12-07T02:46:48;18.73;;;11.07;;
70981;SDS011;58640;51.320;9.456;2022-12-07T02:49:17;21.58;;;11.85;;
70981;SDS011;58640;51.320;9.456;2022-12-07T02:51:44;18.60;;;10.70;;
70981;SDS011;58640;51.320;9.456;2022-12-07T02:54:11;15.35;;;10.27;;
70981;SDS011;58640;51.320;9.456;2022-12-07T03:10:22;14.35;;;8.32;;
70981;SDS011;58640;51.320;9.456;2022-12-07T03:13:10;12.38;;;8.43;;
70981;SDS011;58640;51.320;9.456;2022-12-07T03:15:46;11.77;;;8.48;;
70981;SDS011;58640;51.320;9.456;2022-12-07T03:18:19;15.25;;;9.70;;
70981;SDS011;58640;51.320;9.456;2022-12-07T03:20:49;14.60;;;8.82;;
70981;SDS011;58640;51.320;9.456;2022-12-07T03:23:18;13.48;;;8.32;;
70981;SDS011;58640;51.320;9.456;2022-12-07T03:25:47;13.23;;;8.50;;
70981;SDS011;58640;51.320;9.456;2022-12-07T03:28:17;12.65;;;8.30;;
70981;SDS011;58640;51.320;9.456;2022-12-07T03:30:47;11.98;;;7.95;;
70981;SDS011;58640;51.320;9.456;2022-12-07T03:33:24;11.50;;;7.53;;
70981;SDS011;58640;51.320;9.456;2022-12-07T03:35:59;12.25;;;7.85;;
70981;SDS011;58640;51.320;9.456;2022-12-07T03:39:02;10.23;;;6.57;;
70981;SDS011;58640;51.320;9.456;2022-12-07T03:41:31;8.95;;;5.82;;
70981;SDS011;58640;51.320;9.456;2022-12-07T03:43:59;8.65;;;5.40;;
70981;SDS011;58640;51.320;9.456;2022-12-07T03:46:29;7.40;;;4.85;;
70981;SDS011;58640;51.320;9.456;2022-12-07T03:49:29;4.57;;;3.90;;
70981;SDS011;58640;51.320;9.456;2022-12-07T03:57:41;7.50;;;4.63;;
70981;SDS011;58640;51.320;9.456;2022-12-07T04:00:10;8.00;;;5.53;;
70981;SDS011;58640;51.320;9.456;2022-12-07T04:02:37;7.72;;;5.35;;
70981;SDS011;58640;51.320;9.456;2022-12-07T04:05:03;7.45;;;5.53;;
70981;SDS011;58640;51.320;9.456;2022-12-07T04:07:28;10.50;;;6.45;;
70981;SDS011;58640;51.320;9.456;2022-12-07T04:09:54;10.73;;;7.60;;
70981;SDS011;58640;51.320;9.456;2022-12-07T04:12:20;16.38;;;8.70;;
70981;SDS011;58640;51.320;9.456;2022-12-07T04:14:46;13.80;;;8.60;;
70981;SDS011;58640;51.320;9.456;2022-12-07T04:17:11;11.98;;;8.02;;
70981;SDS011;58640;51.320;9.456;2022-12-07T04:19:37;12.93;;;8.90;;
70981;SDS011;58640;51.320;9.456;2022-12-07T04:22:03;14.63;;;8.25;;
70981;SDS011;58640;51.320;9.456;2022-12-07T04:24:29;16.90;;;9.02;;
70981;SDS011;58640;51.320;9.456;2022-12-07T04:26:55;13.40;;;8.80;;
70981;SDS011;58640;51.320;9.456;2022-12-07T04:29:21;16.00;;;9.48;;
70981;SDS011;58640;51.320;9.456;2022-12-07T04:31:46;14.30;;;9.05;;
70981;SDS011;58640;51.320;9.456;2022-12-07T04:34:15;14.15;;;8.48;;
70981;SDS011;58640;51.320;9.456;2022-12-07T04:36:41;13.60;;;8.73;;
70981;SDS011;58640;51.320;9.456;2022-12-07T04:39:08;12.93;;;8.82;;
70981;SDS011;58640;51.320;9.456;2022-12-07T04:41:42;13.18;;;9.25;;
70981;SDS011;58640;51.320;9.456;2022-12-07T04:44:08;14.48;;;9.13;;
70981;SDS011;58640;51.320;9.456;2022-12-07T04:46:33;14.82;;;8.98;;
70981;SDS011;58640;51.320;9.456;2022-12-07T04:48:58;14.57;;;8.70;;
70981;SDS011;58640;51.320;9.456;2022-12-07T04:51:25;15.45;;;8.48;;
70981;SDS011;58640;51.320;9.456;2022-12-07T04:53:52;12.68;;;7.95;;
70981;SDS011;58640;51.320;9.456;2022-12-07T04:56:18;14.75;;;8.40;;
70981;SDS011;58640;51.320;9.456;2022-12-07T04:58:44;10.35;;;7.47;;
70981;SDS011;58640;51.320;9.456;2022-12-07T05:01:11;17.25;;;9.90;;
70981;SDS011;58640;51.320;9.456;2022-12-07T05:03:37;13.73;;;8.43;;
70981;SDS011;58640;51.320;9.456;2022-12-07T05:06:03;11.90;;;7.63;;
70981;SDS011;58640;51.320;9.456;2022-12-07T05:08:29;13.85;;;7.85;;
70981;SDS011;58640;51.320;9.456;2022-12-07T05:10:54;17.00;;;7.93;;
70981;SDS011;58640;51.320;9.456;2022-12-07T05:13:20;16.25;;;7.90;;
70981;SDS011;58640;51.320;9.456;2022-12-07T05:15:46;14.00;;;9.43;;
70981;SDS011;58640;51.320;9.456;2022-12-07T05:18:12;12.20;;;6.95;;
70981;SDS011;58640;51.320;9.456;2022-12-07T05:20:38;17.15;;;7.50;;
70981;SDS011;58640;51.320;9.456;2022-12-07T05:23:04;11.77;;;7.55;;
70981;SDS011;58640;51.320;9.456;2022-12-07T05:25:30;13.82;;;7.57;;
70981;SDS011;58640;51.320;9.456;2022-12-07T05:27:56;17.50;;;8.02;;
70981;SDS011;58640;51.320;9.456;2022-12-07T05:30:22;13.65;;;7.43;;
70981;SDS011;58640;51.320;9.456;2022-12-07T05:32:50;16.65;;;7.22;;
70981;SDS011;58640;51.320;9.456;2022-12-07T05:35:16;14.38;;;7.93;;
70981;SDS011;58640;51.320;9.456;2022-12-07T05:37:42;10.90;;;6.68;;
70981;SDS011;58640;51.320;9.456;2022-12-07T05:40:07;11.98;;;6.93;;
70981;SDS011;58640;51.320;9.456;2022-12-07T05:42:33;11.77;;;7.45;;
70981;SDS011;58640;51.320;9.456;2022-12-07T05:44:59;14.18;;;7.07;;
70981;SDS011;58640;51.320;9.456;2022-12-07T05:47:24;12.10;;;7.28;;
70981;SDS011;58640;51.320;9.456;2022-12-07T05:49:50;13.93;;;7.20;;
70981;SDS011;58640;51.320;9.456;2022-12-07T05:52:15;12.10;;;7.05;;
70981;SDS011;58640;51.320;9.456;2022-12-07T05:54:40;14.10;;;6.38;;
70981;SDS011;58640;51.320;9.456;2022-12-07T05:57:06;17.10;;;6.88;;
70981;SDS011;58640;51.320;9.456;2022-12-07T05:59:31;9.10;;;6.05;;
70981;SDS011;58640;51.320;9.456;2022-12-07T06:01:58;8.68;;;6.00;;
70981;SDS011;58640;51.320;9.456;2022-12-07T06:04:25;10.48;;;6.05;;
70981;SDS011;58640;51.320;9.456;2022-12-07T06:06:52;12.05;;;6.10;;
70981;SDS011;58640;51.320;9.456;2022-12-07T06:09:18;16.65;;;6.63;;
70981;SDS011;58640;51.320;9.456;2022-12-07T06:11:44;17.38;;;7.38;;
70981;SDS011;58640;51.320;9.456;2022-12-07T06:14:28;12.63;;;6.72;;
70981;SDS011;58640;51.320;9.456;2022-12-07T06:16:53;13.68;;;6.47;;
70981;SDS011;58640;51.320;9.456;2022-12-07T06:19:19;10.43;;;6.32;;
70981;SDS011;58640;51.320;9.456;2022-12-07T06:21:44;14.45;;;6.32;;
70981;SDS011;58640;51.320;9.456;2022-12-07T06:24:13;16.13;;;7.10;;
70981;SDS011;58640;51.320;9.456;2022-12-07T06:26:40;12.35;;;5.85;;
70981;SDS011;58640;51.320;9.456;2022-12-07T06:29:06;9.88;;;6.13;;
70981;SDS011;58640;51.320;9.456;2022-12-07T06:31:32;12.05;;;6.03;;
70981;SDS011;58640;51.320;9.456;2022-12-07T06:34:05;13.52;;;6.22;;
70981;SDS011;58640;51.320;9.456;2022-12-07T06:36:33;11.38;;;7.63;;
70981;SDS011;58640;51.320;9.456;2022-12-07T06:38:59;10.43;;;6.78;;
70981;SDS011;58640;51.320;9.456;2022-12-07T06:41:24;10.27;;;5.28;;
70981;SDS011;58640;51.320;9.456;2022-12-07T06:43:50;12.50;;;6.03;;
70981;SDS011;58640;51.320;9.456;2022-12-07T06:46:16;8.27;;;5.03;;
70981;SDS011;58640;51.320;9.456;2022-12-07T06:48:41;6.68;;;4.60;;
70981;SDS011;58640;51.320;9.456;2022-12-07T06:51:08;7.75;;;4.43;;
70981;SDS011;58640;51.320;9.456;2022-12-07T06:53:33;13.35;;;5.32;;
70981;SDS011;58640;51.320;9.456;2022-12-07T06:55:59;9.13;;;4.45;;
70981;SDS011;58640;51.320;9.456;2022-12-07T06:58:24;12.30;;;5.35;;
70981;SDS011;58640;51.320;9.456;2022-12-07T07:00:50;6.90;;;4.85;;
70981;SDS011;58640;51.320;9.456;2022-12-07T07:03:15;8.50;;;4.72;;
70981;SDS011;58640;51.320;9.456;2022-12-07T07:05:42;10.30;;;4.78;;
70981;SDS011;58640;51.320;9.456;2022-12-07T07:08:07;11.13;;;4.22;;
70981;SDS011;58640;51.320;9.456;2022-12-07T07:10:33;10.18;;;4.88;;
70981;SDS011;58640;51.320;9.456;2022-12-07T07:12:59;11.65;;;4.38;;
70981;SDS011;58640;51.320;9.456;2022-12-07T07:15:24;13.90;;;4.90;;
70981;SDS011;58640;51.320;9.456;2022-12-07T07:17:50;10.30;;;4.82;;
70981;SDS011;58640;51.320;9.456;2022-12-07T07:20:15;13.40;;;4.68;;
70981;SDS011;58640;51.320;9.456;2022-12-07T07:22:41;9.13;;;4.68;;
70981;SDS011;58640;51.320;9.456;2022-12-07T07:25:06;8.18;;;5.07;;
70981;SDS011;58640;51.320;9.456;2022-12-07T07:27:32;9.13;;;4.13;;
70981;SDS011;58640;51.320;9.456;2022-12-07T07:29:57;14.07;;;5.10;;
70981;SDS011;58640;51.320;9.456;2022-12-07T07:32:22;15.68;;;4.50;;
70981;SDS011;58640;51.320;9.456;2022-12-07T07:34:48;11.57;;;4.55;;
70981;SDS011;58640;51.320;9.456;2022-12-07T07:37:13;9.30;;;4.75;;
70981;SDS011;58640;51.320;9.456;2022-12-07T07:39:39;8.35;;;4.95;;
70981;SDS011;58640;51.320;9.456;2022-12-07T07:42:05;9.25;;;5.10;;
70981;SDS011;58640;51.320;9.456;2022-12-07T07:44:32;14.48;;;5.35;;
70981;SDS011;58640;51.320;9.456;2022-12-07T07:46:58;6.82;;;4.43;;
70981;SDS011;58640;51.320;9.456;2022-12-07T07:49:23;6.72;;;4.47;;
70981;SDS011;58640;51.320;9.456;2022-12-07T07:51:56;9.23;;;4.80;;
70981;SDS011;58640;51.320;9.456;2022-12-07T07:54:22;8.73;;;4.97;;
70981;SDS011;58640;51.320;9.456;2022-12-07T07:56:47;10.13;;;4.72;;
70981;SDS011;58640;51.320;9.456;2022-12-07T07:59:13;7.53;;;4.40;;
70981;SDS011;58640;51.320;9.456;2022-12-07T08:01:39;11.77;;;5.97;;
70981;SDS011;58640;51.320;9.456;2022-12-07T08:04:04;12.63;;;4.80;;
70981;SDS011;58640;51.320;9.456;2022-12-07T08:06:30;9.10;;;5.15;;
70981;SDS011;58640;51.320;9.456;2022-12-07T08:08:55;6.97;;;4.38;;
70981;SDS011;58640;51.320;9.456;2022-12-07T08:11:23;6.30;;;3.90;;
70981;SDS011;58640;51.320;9.456;2022-12-07T08:13:57;8.68;;;4.22;;
70981;SDS011;58640;51.320;9.456;2022-12-07T08:16:22;8.13;;;3.92;;
70981;SDS011;58640;51.320;9.456;2022-12-07T08:18:52;11.30;;;4.38;;
70981;SDS011;58640;51.320;9.456;2022-12-07T08:21:22;9.63;;;4.45;;
70981;SDS011;58640;51.320;9.456;2022-12-07T08:23:48;8.38;;;4.47;;
70981;SDS011;58640;51.320;9.456;2022-12-07T08:26:16;5.70;;;3.10;;
70981;SDS011;58640;51.320;9.456;2022-12-07T08:28:42;6.00;;;3.47;;
70981;SDS011;58640;51.320;9.456;2022-12-07T08:31:10;5.90;;;3.20;;
70981;SDS011;58640;51.320;9.456;2022-12-07T08:33:38;4.10;;;2.70;;
70981;SDS011;58640;51.320;9.456;2022-12-07T08:36:07;7.32;;;3.30;;
70981;SDS011;58640;51.320;9.456;2022-12-07T08:38:37;6.20;;;4.05;;
70981;SDS011;58640;51.320;9.456;2022-12-07T08:41:04;7.35;;;3.80;;
70981;SDS011;58640;51.320;9.456;2022-12-07T08:43:30;7.53;;;4.00;;
70981;SDS011;58640;51.320;9.456;2022-12-07T08:48:28;7.22;;;4.15;;
70981;SDS011;58640;51.320;9.456;2022-12-07T08:50:55;5.55;;;3.97;;
70981;SDS011;58640;51.320;9.456;2022-12-07T08:53:20;11.80;;;4.57;;
70981;SDS011;58640;51.320;9.456;2022-12-07T08:55:46;6.75;;;3.88;;
70981;SDS011;58640;51.320;9.456;2022-12-07T08:58:13;6.78;;;3.58;;
70981;SDS011;58640;51.320;9.456;2022-12-07T09:00:38;6.32;;;3.35;;
70981;SDS011;58640;51.320;9.456;2022-12-07T09:03:03;9.13;;;3.60;;
70981;SDS011;58640;51.320;9.456;2022-12-07T09:05:29;8.20;;;3.83;;
70981;SDS011;58640;51.320;9.456;2022-12-07T09:07:55;8.88;;;3.33;;
70981;SDS011;58640;51.320;9.456;2022-12-07T09:10:22;10.13;;;3.53;;
70981;SDS011;58640;51.320;9.456;2022-12-07T09:12:48;7.97;;;3.45;;
70981;SDS011;58640;51.320;9.456;2022-12-07T09:15:14;6.80;;;3.22;;
70981;SDS011;58640;51.320;9.456;2022-12-07T09:17:39;8.60;;;3.38;;
70981;SDS011;58640;51.320;9.456;2022-12-07T09:20:05;7.60;;;3.20;;
70981;SDS011;58640;51.320;9.456;2022-12-07T09:22:31;7.20;;;3.33;;
70981;SDS011;58640;51.320;9.456;2022-12-07T09:24:57;7.45;;;3.50;;
70981;SDS011;58640;51.320;9.456;2022-12-07T09:27:24;6.32;;;3.40;;
70981;SDS011;58640;51.320;9.456;2022-12-07T09:29:49;6.75;;;2.85;;
70981;SDS011;58640;51.320;9.456;2022-12-07T09:32:15;6.13;;;3.00;;
70981;SDS011;58640;51.320;9.456;2022-12-07T09:34:40;6.97;;;2.90;;
70981;SDS011;58640;51.320;9.456;2022-12-07T09:37:05;7.75;;;3.20;;
70981;SDS011;58640;51.320;9.456;2022-12-07T09:39:31;6.63;;;3.03;;
70981;SDS011;58640;51.320;9.456;2022-12-07T09:41:57;5.63;;;2.47;;
70981;SDS011;58640;51.320;9.456;2022-12-07T09:44:24;11.75;;;2.85;;
70981;SDS011;58640;51.320;9.456;2022-12-07T09:46:51;6.68;;;2.63;;
70981;SDS011;58640;51.320;9.456;2022-12-07T09:49:19;5.78;;;3.00;;
70981;SDS011;58640;51.320;9.456;2022-12-07T09:51:47;7.20;;;2.75;;
70981;SDS011;58640;51.320;9.456;2022-12-07T09:54:23;4.10;;;2.38;;
70981;SDS011;58640;51.320;9.456;2022-12-07T09:56:49;11.23;;;2.78;;
70981;SDS011;58640;51.320;9.456;2022-12-07T09:59:17;5.35;;;2.75;;
70981;SDS011;58640;51.320;9.456;2022-12-07T10:01:44;7.57;;;2.42;;
70981;SDS011;58640;51.320;9.456;2022-12-07T10:04:19;7.32;;;2.40;;
70981;SDS011;58640;51.320;9.456;2022-12-07T10:06:46;3.55;;;2.25;;
70981;SDS011;58640;51.320;9.456;2022-12-07T10:09:13;5.00;;;2.47;;
70981;SDS011;58640;51.320;9.456;2022-12-07T10:11:59;4.90;;;1.80;;
70981;SDS011;58640;51.320;9.456;2022-12-07T10:14:28;4.25;;;2.47;;
70981;SDS011;58640;51.320;9.456;2022-12-07T10:16:54;2.35;;;1.85;;
70981;SDS011;58640;51.320;9.456;2022-12-07T10:22:09;3.03;;;2.20;;
70981;SDS011;58640;51.320;9.456;2022-12-07T10:24:37;2.10;;;1.80;;
70981;SDS011;58640;51.320;9.456;2022-12-07T10:27:10;4.40;;;1.67;;
70981;SDS011;58640;51.320;9.456;2022-12-07T10:29:46;6.30;;;2.47;;
70981;SDS011;58640;51.320;9.456;2022-12-07T10:34:39;3.75;;;1.90;;
70981;SDS011;58640;51.320;9.456;2022-12-07T10:39:44;3.50;;;1.67;;
70981;SDS011;58640;51.320;9.456;2022-12-07T10:42:24;4.22;;;1.80;;
70981;SDS011;58640;51.320;9.456;2022-12-07T10:45:07;4.38;;;2.10;;
70981;SDS011;58640;51.320;9.456;2022-12-07T10:47:36;5.82;;;1.90;;
70981;SDS011;58640;51.320;9.456;2022-12-07T11:00:58;4.82;;;1.55;;
70981;SDS011;58640;51.320;9.456;2022-12-07T11:11:59;3.65;;;1.40;;
70981;SDS011;58640;51.320;9.456;2022-12-07T11:14:36;3.55;;;1.55;;
70981;SDS011;58640;51.320;9.456;2022-12-07T11:17:18;6.05;;;1.65;;
70981;SDS011;58640;51.320;9.456;2022-12-07T11:19:59;3.38;;;1.55;;
70981;SDS011;58640;51.320;9.456;2022-12-07T11:22:51;5.53;;;2.05;;
70981;SDS011;58640;51.320;9.456;2022-12-07T11:25:30;4.00;;;2.20;;
70981;SDS011;58640;51.320;9.456;2022-12-07T11:36:36;6.95;;;2.10;;
70981;SDS011;58640;51.320;9.456;2022-12-07T11:39:36;4.72;;;1.67;;
70981;SDS011;58640;51.320;9.456;2022-12-07T11:42:14;3.35;;;1.73;;
70981;SDS011;58640;51.320;9.456;2022-12-07T11:44:50;4.20;;;1.58;;
70981;SDS011;58640;51.320;9.456;2022-12-07T11:50:32;4.93;;;2.00;;
70981;SDS011;58640;51.320;9.456;2022-12-07T11:58:44;6.10;;;2.72;;
70981;SDS011;58640;51.320;9.456;2022-12-07T12:01:29;4.38;;;1.48;;
70981;SDS011;58640;51.320;9.456;2022-12-07T12:06:33;5.68;;;1.70;;
70981;SDS011;58640;51.320;9.456;2022-12-07T12:11:56;4.90;;;1.73;;
70981;SDS011;58640;51.320;9.456;2022-12-07T12:17:43;7.07;;;2.25;;
70981;SDS011;58640;51.320;9.456;2022-12-07T12:25:51;5.85;;;1.50;;
70981;SDS011;58640;51.320;9.456;2022-12-07T12:28:22;4.88;;;1.75;;
70981;SDS011;58640;51.320;9.456;2022-12-07T12:33:43;4.78;;;1.73;;
70981;SDS011;58640;51.320;9.456;2022-12-07T12:46:58;6.10;;;1.65;;
70981;SDS011;58640;51.320;9.456;2022-12-07T13:00:43;4.57;;;1.67;;
70981;SDS011;58640;51.320;9.456;2022-12-07T13:09:54;5.20;;;2.38;;
70981;SDS011;58640;51.320;9.456;2022-12-07T13:12:19;4.63;;;1.80;;
70981;SDS011;58640;51.320;9.456;2022-12-07T13:14:52;3.88;;;2.22;;
70981;SDS011;58640;51.320;9.456;2022-12-07T13:19:57;3.55;;;1.83;;
70981;SDS011;58640;51.320;9.456;2022-12-07T13:24:58;10.90;;;1.80;;
70981;SDS011;58640;51.320;9.456;2022-12-07T13:27:28;5.38;;;1.80;;
70981;SDS011;58640;51.320;9.456;2022-12-07T13:29:56;5.97;;;2.08;;
70981;SDS011;58640;51.320;9.456;2022-12-07T13:32:26;4.10;;;1.65;;
70981;SDS011;58640;51.320;9.456;2022-12-07T13:34:52;6.68;;;2.50;;
70981;SDS011;58640;51.320;9.456;2022-12-07T13:37:27;2.70;;;1.83;;
70981;SDS011;58640;51.320;9.456;2022-12-07T13:39:58;10.50;;;1.67;;
70981;SDS011;58640;51.320;9.456;2022-12-07T13:42:26;2.80;;;2.10;;
70981;SDS011;58640;51.320;9.456;2022-12-07T13:44:52;7.40;;;1.83;;
70981;SDS011;58640;51.320;9.456;2022-12-07T13:50:02;4.88;;;2.00;;
70981;SDS011;58640;51.320;9.456;2022-12-07T13:52:54;5.28;;;2.35;;
70981;SDS011;58640;51.320;9.456;2022-12-07T13:55:20;4.05;;;2.03;;
70981;SDS011;58640;51.320;9.456;2022-12-07T13:57:47;4.82;;;2.88;;
70981;SDS011;58640;51.320;9.456;2022-12-07T14:00:15;5.10;;;2.28;;
70981;SDS011;58640;51.320;9.456;2022-12-07T14:05:28;6.60;;;2.53;;
70981;SDS011;58640;51.320;9.456;2022-12-07T14:08:04;3.90;;;2.08;;
70981;SDS011;58640;51.320;9.456;2022-12-07T14:16:04;7.20;;;2.67;;
70981;SDS011;58640;51.320;9.456;2022-12-07T14:18:38;7.65;;;2.63;;
70981;SDS011;58640;51.320;9.456;2022-12-07T14:21:06;10.27;;;3.45;;
70981;SDS011;58640;51.320;9.456;2022-12-07T14:23:39;7.78;;;2.58;;
70981;SDS011;58640;51.320;9.456;2022-12-07T14:26:12;6.93;;;2.63;;
70981;SDS011;58640;51.320;9.456;2022-12-07T14:28:45;5.03;;;2.50;;
70981;SDS011;58640;51.320;9.456;2022-12-07T14:31:12;7.57;;;3.22;;
70981;SDS011;58640;51.320;9.456;2022-12-07T14:33:40;7.80;;;2.72;;
70981;SDS011;58640;51.320;9.456;2022-12-07T14:36:08;6.15;;;2.03;;
70981;SDS011;58640;51.320;9.456;2022-12-07T14:38:39;3.80;;;2.60;;
70981;SDS011;58640;51.320;9.456;2022-12-07T14:41:04;8.27;;;2.70;;
70981;SDS011;58640;51.320;9.456;2022-12-07T14:43:58;5.82;;;2.28;;
70981;SDS011;58640;51.320;9.456;2022-12-07T14:46:25;10.40;;;2.65;;
70981;SDS011;58640;51.320;9.456;2022-12-07T14:48:50;4.18;;;2.75;;
70981;SDS011;58640;51.320;9.456;2022-12-07T14:51:15;5.22;;;2.40;;
70981;SDS011;58640;51.320;9.456;2022-12-07T14:53:42;11.27;;;2.95;;
70981;SDS011;58640;51.320;9.456;2022-12-07T14:56:11;8.85;;;2.97;;
70981;SDS011;58640;51.320;9.456;2022-12-07T14:58:36;3.47;;;2.55;;
70981;SDS011;58640;51.320;9.456;2022-12-07T15:01:02;4.05;;;2.42;;
70981;SDS011;58640;51.320;9.456;2022-12-07T15:03:28;5.28;;;2.60;;
70981;SDS011;58640;51.320;9.456;2022-12-07T15:05:54;4.70;;;2.83;;
70981;SDS011;58640;51.320;9.456;2022-12-07T15:08:19;9.95;;;2.95;;
70981;SDS011;58640;51.320;9.456;2022-12-07T15:10:45;6.78;;;2.95;;
70981;SDS011;58640;51.320;9.456;2022-12-07T15:13:10;8.68;;;3.35;;
70981;SDS011;58640;51.320;9.456;2022-12-07T15:15:54;8.55;;;3.35;;
70981;SDS011;58640;51.320;9.456;2022-12-07T15:18:20;7.20;;;2.90;;
70981;SDS011;58640;51.320;9.456;2022-12-07T15:20:46;8.57;;;3.30;;
70981;SDS011;58640;51.320;9.456;2022-12-07T15:23:12;9.43;;;3.95;;
70981;SDS011;58640;51.320;9.456;2022-12-07T15:25:40;8.23;;;3.17;;
70981;SDS011;58640;51.320;9.456;2022-12-07T15:28:07;6.30;;;3.15;;
70981;SDS011;58640;51.320;9.456;2022-12-07T15:30:32;3.72;;;3.10;;
70981;SDS011;58640;51.320;9.456;2022-12-07T15:32:58;6.75;;;3.40;;
70981;SDS011;58640;51.320;9.456;2022-12-07T15:35:23;5.53;;;3.40;;
70981;SDS011;58640;51.320;9.456;2022-12-07T15:37:48;8.60;;;3.90;;
70981;SDS011;58640;51.320;9.456;2022-12-07T15:40:14;7.57;;;3.47;;
70981;SDS011;58640;51.320;9.456;2022-12-07T15:42:39;7.07;;;3.92;;
70981;SDS011;58640;51.320;9.456;2022-12-07T15:45:06;7.75;;;3.65;;
70981;SDS011;58640;51.320;9.456;2022-12-07T15:47:36;10.70;;;3.97;;
70981;SDS011;58640;51.320;9.456;2022-12-07T15:50:05;6.40;;;3.30;;
70981;SDS011;58640;51.320;9.456;2022-12-07T15:52:32;8.27;;;3.97;;
70981;SDS011;58640;51.320;9.456;2022-12-07T15:54:58;7.63;;;3.60;;
70981;SDS011;58640;51.320;9.456;2022-12-07T15:57:28;10.20;;;3.45;;
70981;SDS011;58640;51.320;9.456;2022-12-07T15:59:54;14.30;;;4.38;;
70981;SDS011;58640;51.320;9.456;2022-12-07T16:02:19;17.83;;;8.18;;
70981;SDS011;58640;51.320;9.456;2022-12-07T16:04:45;18.50;;;5.93;;
70981;SDS011;58640;51.320;9.456;2022-12-07T16:07:10;16.45;;;4.53;;
70981;SDS011;58640;51.320;9.456;2022-12-07T16:09:36;13.32;;;4.82;;
70981;SDS011;58640;51.320;9.456;2022-12-07T16:12:02;7.70;;;5.07;;
70981;SDS011;58640;51.320;9.456;2022-12-07T16:14:28;16.13;;;4.68;;
70981;SDS011;58640;51.320;9.456;2022-12-07T16:16:53;13.88;;;5.72;;
70981;SDS011;58640;51.320;9.456;2022-12-07T16:19:19;23.13;;;7.00;;
70981;SDS011;58640;51.320;9.456;2022-12-07T16:21:44;8.93;;;4.93;;
70981;SDS011;58640;51.320;9.456;2022-12-07T16:24:09;11.38;;;4.72;;
70981;SDS011;58640;51.320;9.456;2022-12-07T16:26:35;8.70;;;4.40;;
70981;SDS011;58640;51.320;9.456;2022-12-07T16:29:00;8.60;;;4.13;;
70981;SDS011;58640;51.320;9.456;2022-12-07T16:31:27;7.82;;;4.15;;
70981;SDS011;58640;51.320;9.456;2022-12-07T16:33:54;12.70;;;4.20;;
70981;SDS011;58640;51.320;9.456;2022-12-07T16:36:21;6.82;;;4.05;;
70981;SDS011;58640;51.320;9.456;2022-12-07T16:38:49;15.13;;;4.63;;
70981;SDS011;58640;51.320;9.456;2022-12-07T16:41:14;8.05;;;4.32;;
70981;SDS011;58640;51.320;9.456;2022-12-07T16:43:40;10.57;;;4.13;;
70981;SDS011;58640;51.320;9.456;2022-12-07T16:46:05;9.95;;;4.68;;
70981;SDS011;58640;51.320;9.456;2022-12-07T16:48:31;7.95;;;4.65;;
70981;SDS011;58640;51.320;9.456;2022-12-07T16:50:56;13.40;;;4.45;;
70981;SDS011;58640;51.320;9.456;2022-12-07T16:53:22;11.93;;;3.85;;
70981;SDS011;58640;51.320;9.456;2022-12-07T16:55:49;9.68;;;4.15;;
70981;SDS011;58640;51.320;9.456;2022-12-07T16:58:15;11.48;;;4.45;;
70981;SDS011;58640;51.320;9.456;2022-12-07T17:00:41;9.48;;;4.43;;
70981;SDS011;58640;51.320;9.456;2022-12-07T17:03:08;6.68;;;4.03;;
70981;SDS011;58640;51.320;9.456;2022-12-07T17:05:37;11.48;;;4.20;;
70981;SDS011;58640;51.320;9.456;2022-12-07T17:08:03;12.18;;;4.57;;
70981;SDS011;58640;51.320;9.456;2022-12-07T17:10:28;10.65;;;4.55;;